sensor_id;sensor_type;location;lat;lon;timestamp;P1;durP1;ratioP1;P2;durP2;ratioP2
17261;SDS011;9873;52.236;21.002;2023-02-28T00:08:31;10.17;;;5.17;;
17261;SDS011;9873;52.236;21.002;2023-02-28T00:18:38;12.17;;;6.47;;
17261;SDS011;9873;52.236;21.002;2023-02-28T00:28:43;10.07;;;6.00;;
17261;SDS011;9873;52.236;21.002;2023-02-28T00:38:53;8.20;;;5.73;;
17261;SDS011;9873;52.236;21.002;2023-02-28T00:49:02;10.40;;;6.27;;
17261;SDS011;9873;52.236;21.002;2023-02-28T00:59:07;12.87;;;6.70;;
17261;SDS011;9873;52.236;21.002;2023-02-28T01:09:10;13.67;;;7.83;;
17261;SDS011;9873;52.236;21.002;2023-02-28T01:19:16;11.60;;;5.10;;
17261;SDS011;9873;52.236;21.002;2023-02-28T01:29:18;8.20;;;4.77;;
17261;SDS011;9873;52.236;21.002;2023-02-28T01:39:26;9.03;;;5.03;;
17261;SDS011;9873;52.236;21.002;2023-02-28T01:49:31;8.57;;;4.37;;
17261;SDS011;9873;52.236;21.002;2023-02-28T01:59:45;8.10;;;4.57;;
17261;SDS011;9873;52.236;21.002;2023-02-28T02:10:01;8.47;;;5.03;;
17261;SDS011;9873;52.236;21.002;2023-02-28T02:20:28;7.07;;;4.47;;
17261;SDS011;9873;52.236;21.002;2023-02-28T02:51:01;7.10;;;4.80;;
17261;SDS011;9873;52.236;21.002;2023-02-28T03:01:06;8.47;;;5.17;;
17261;SDS011;9873;52.236;21.002;2023-02-28T03:11:12;8.30;;;4.93;;
17261;SDS011;9873;52.236;21.002;2023-02-28T03:31:36;8.00;;;5.03;;
17261;SDS011;9873;52.236;21.002;2023-02-28T03:41:48;14.37;;;6.23;;
17261;SDS011;9873;52.236;21.002;2023-02-28T03:51:56;14.33;;;6.20;;
17261;SDS011;9873;52.236;21.002;2023-02-28T04:02:06;13.10;;;6.50;;
17261;SDS011;9873;52.236;21.002;2023-02-28T04:12:09;11.63;;;5.97;;
17261;SDS011;9873;52.236;21.002;2023-02-28T04:22:11;10.37;;;5.10;;
17261;SDS011;9873;52.236;21.002;2023-02-28T04:32:16;9.13;;;5.30;;
17261;SDS011;9873;52.236;21.002;2023-02-28T04:42:23;10.90;;;6.37;;
17261;SDS011;9873;52.236;21.002;2023-02-28T04:52:25;12.93;;;6.33;;
17261;SDS011;9873;52.236;21.002;2023-02-28T05:02:29;7.30;;;5.30;;
17261;SDS011;9873;52.236;21.002;2023-02-28T05:12:32;9.20;;;5.77;;
17261;SDS011;9873;52.236;21.002;2023-02-28T05:22:37;8.73;;;5.87;;
17261;SDS011;9873;52.236;21.002;2023-02-28T05:32:39;9.57;;;5.50;;
17261;SDS011;9873;52.236;21.002;2023-02-28T05:42:50;8.60;;;5.77;;
17261;SDS011;9873;52.236;21.002;2023-02-28T05:52:55;12.60;;;6.40;;
17261;SDS011;9873;52.236;21.002;2023-02-28T06:03:00;11.63;;;5.80;;
17261;SDS011;9873;52.236;21.002;2023-02-28T06:13:04;8.80;;;5.30;;
17261;SDS011;9873;52.236;21.002;2023-02-28T06:23:09;14.97;;;10.13;;
17261;SDS011;9873;52.236;21.002;2023-02-28T06:33:11;14.07;;;7.70;;
17261;SDS011;9873;52.236;21.002;2023-02-28T06:43:17;14.57;;;7.67;;
17261;SDS011;9873;52.236;21.002;2023-02-28T06:53:21;9.27;;;6.33;;
17261;SDS011;9873;52.236;21.002;2023-02-28T07:03:23;7.80;;;5.93;;
17261;SDS011;9873;52.236;21.002;2023-02-28T07:13:31;8.77;;;4.80;;
17261;SDS011;9873;52.236;21.002;2023-02-28T07:23:35;10.07;;;6.03;;
17261;SDS011;9873;52.236;21.002;2023-02-28T07:33:43;6.73;;;4.40;;
17261;SDS011;9873;52.236;21.002;2023-02-28T07:43:45;6.83;;;3.83;;
17261;SDS011;9873;52.236;21.002;2023-02-28T07:53:50;7.73;;;4.93;;
17261;SDS011;9873;52.236;21.002;2023-02-28T08:03:58;9.70;;;5.30;;
17261;SDS011;9873;52.236;21.002;2023-02-28T08:14:04;6.13;;;5.00;;
17261;SDS011;9873;52.236;21.002;2023-02-28T08:24:11;11.30;;;6.53;;
17261;SDS011;9873;52.236;21.002;2023-02-28T08:34:16;11.37;;;6.70;;
17261;SDS011;9873;52.236;21.002;2023-02-28T08:44:18;9.47;;;5.77;;
17261;SDS011;9873;52.236;21.002;2023-02-28T08:54:23;6.47;;;5.20;;
17261;SDS011;9873;52.236;21.002;2023-02-28T09:04:33;9.90;;;6.50;;
17261;SDS011;9873;52.236;21.002;2023-02-28T09:14:38;9.73;;;6.63;;
17261;SDS011;9873;52.236;21.002;2023-02-28T09:24:46;11.13;;;6.73;;
17261;SDS011;9873;52.236;21.002;2023-02-28T09:34:49;9.93;;;6.33;;
17261;SDS011;9873;52.236;21.002;2023-02-28T09:44:52;11.33;;;6.47;;
17261;SDS011;9873;52.236;21.002;2023-02-28T09:55:00;9.77;;;6.33;;
17261;SDS011;9873;52.236;21.002;2023-02-28T10:05:32;12.07;;;7.30;;
17261;SDS011;9873;52.236;21.002;2023-02-28T10:15:36;8.00;;;5.57;;
17261;SDS011;9873;52.236;21.002;2023-02-28T10:25:44;11.93;;;6.97;;
17261;SDS011;9873;52.236;21.002;2023-02-28T10:35:52;11.27;;;6.63;;
17261;SDS011;9873;52.236;21.002;2023-02-28T10:45:59;12.73;;;8.60;;
17261;SDS011;9873;52.236;21.002;2023-02-28T11:06:34;11.40;;;8.13;;
17261;SDS011;9873;52.236;21.002;2023-02-28T11:16:39;11.73;;;7.50;;
17261;SDS011;9873;52.236;21.002;2023-02-28T11:26:47;13.13;;;7.93;;
17261;SDS011;9873;52.236;21.002;2023-02-28T11:36:50;13.30;;;7.63;;
17261;SDS011;9873;52.236;21.002;2023-02-28T11:47:04;12.73;;;7.00;;
17261;SDS011;9873;52.236;21.002;2023-02-28T12:07:55;12.83;;;7.50;;
17261;SDS011;9873;52.236;21.002;2023-02-28T12:28:12;14.53;;;8.17;;
17261;SDS011;9873;52.236;21.002;2023-02-28T12:38:19;13.53;;;8.23;;
17261;SDS011;9873;52.236;21.002;2023-02-28T12:48:36;11.17;;;7.20;;
17261;SDS011;9873;52.236;21.002;2023-02-28T12:58:51;11.57;;;8.07;;
17261;SDS011;9873;52.236;21.002;2023-02-28T13:09:09;13.23;;;8.93;;
17261;SDS011;9873;52.236;21.002;2023-02-28T13:19:19;13.53;;;7.73;;
17261;SDS011;9873;52.236;21.002;2023-02-28T13:29:30;17.57;;;9.30;;
17261;SDS011;9873;52.236;21.002;2023-02-28T13:49:37;15.20;;;8.93;;
17261;SDS011;9873;52.236;21.002;2023-02-28T14:10:20;12.87;;;7.57;;
17261;SDS011;9873;52.236;21.002;2023-02-28T14:20:29;13.50;;;7.77;;
17261;SDS011;9873;52.236;21.002;2023-02-28T14:41:05;11.83;;;7.43;;
17261;SDS011;9873;52.236;21.002;2023-02-28T14:51:08;14.80;;;7.33;;
17261;SDS011;9873;52.236;21.002;2023-02-28T15:01:11;12.10;;;7.97;;
17261;SDS011;9873;52.236;21.002;2023-02-28T15:11:18;14.30;;;8.20;;
17261;SDS011;9873;52.236;21.002;2023-02-28T15:31:34;12.10;;;7.30;;
17261;SDS011;9873;52.236;21.002;2023-02-28T15:42:10;15.03;;;7.60;;
17261;SDS011;9873;52.236;21.002;2023-02-28T15:52:21;13.13;;;8.07;;
17261;SDS011;9873;52.236;21.002;2023-02-28T16:02:32;12.43;;;7.77;;
17261;SDS011;9873;52.236;21.002;2023-02-28T16:12:38;13.33;;;8.23;;
17261;SDS011;9873;52.236;21.002;2023-02-28T16:22:41;15.13;;;8.77;;
17261;SDS011;9873;52.236;21.002;2023-02-28T16:32:44;15.23;;;8.90;;
17261;SDS011;9873;52.236;21.002;2023-02-28T16:42:50;20.03;;;10.23;;
17261;SDS011;9873;52.236;21.002;2023-02-28T16:52:58;17.13;;;9.53;;
17261;SDS011;9873;52.236;21.002;2023-02-28T17:03:02;19.30;;;10.70;;
17261;SDS011;9873;52.236;21.002;2023-02-28T17:13:08;17.87;;;10.67;;
17261;SDS011;9873;52.236;21.002;2023-02-28T17:23:18;23.37;;;11.97;;
17261;SDS011;9873;52.236;21.002;2023-02-28T17:33:25;21.43;;;11.93;;
17261;SDS011;9873;52.236;21.002;2023-02-28T17:43:28;19.60;;;10.37;;
17261;SDS011;9873;52.236;21.002;2023-02-28T17:53:33;19.30;;;9.80;;
17261;SDS011;9873;52.236;21.002;2023-02-28T18:03:35;16.60;;;9.97;;
17261;SDS011;9873;52.236;21.002;2023-02-28T18:13:38;16.20;;;9.73;;
17261;SDS011;9873;52.236;21.002;2023-02-28T18:23:41;17.93;;;10.57;;
17261;SDS011;9873;52.236;21.002;2023-02-28T18:33:49;19.23;;;11.60;;
17261;SDS011;9873;52.236;21.002;2023-02-28T18:43:53;20.23;;;9.83;;
17261;SDS011;9873;52.236;21.002;2023-02-28T18:53:55;23.13;;;10.27;;
17261;SDS011;9873;52.236;21.002;2023-02-28T19:04:05;23.50;;;11.13;;
17261;SDS011;9873;52.236;21.002;2023-02-28T19:14:07;21.00;;;9.53;;
17261;SDS011;9873;52.236;21.002;2023-02-28T19:24:12;23.57;;;11.30;;
17261;SDS011;9873;52.236;21.002;2023-02-28T19:34:21;24.80;;;11.77;;
17261;SDS011;9873;52.236;21.002;2023-02-28T19:44:25;23.17;;;11.47;;
17261;SDS011;9873;52.236;21.002;2023-02-28T19:54:34;25.00;;;12.10;;
17261;SDS011;9873;52.236;21.002;2023-02-28T20:04:38;23.63;;;11.30;;
17261;SDS011;9873;52.236;21.002;2023-02-28T20:14:42;21.80;;;11.90;;
17261;SDS011;9873;52.236;21.002;2023-02-28T20:24:47;19.73;;;9.07;;
17261;SDS011;9873;52.236;21.002;2023-02-28T20:34:49;18.40;;;9.97;;
17261;SDS011;9873;52.236;21.002;2023-02-28T20:44:54;19.93;;;9.57;;
17261;SDS011;9873;52.236;21.002;2023-02-28T20:54:56;23.33;;;10.77;;
17261;SDS011;9873;52.236;21.002;2023-02-28T21:04:59;25.83;;;12.33;;
17261;SDS011;9873;52.236;21.002;2023-02-28T21:15:05;27.50;;;14.27;;
17261;SDS011;9873;52.236;21.002;2023-02-28T21:25:10;26.00;;;12.77;;
17261;SDS011;9873;52.236;21.002;2023-02-28T21:35:13;30.33;;;13.70;;
17261;SDS011;9873;52.236;21.002;2023-02-28T21:45:19;34.33;;;16.63;;
17261;SDS011;9873;52.236;21.002;2023-02-28T21:55:24;30.43;;;15.03;;
17261;SDS011;9873;52.236;21.002;2023-02-28T22:05:28;37.90;;;18.13;;
17261;SDS011;9873;52.236;21.002;2023-02-28T22:15:34;43.13;;;18.10;;
17261;SDS011;9873;52.236;21.002;2023-02-28T22:25:38;41.37;;;19.50;;
17261;SDS011;9873;52.236;21.002;2023-02-28T22:35:46;36.23;;;20.40;;
17261;SDS011;9873;52.236;21.002;2023-02-28T22:45:49;40.20;;;18.57;;
17261;SDS011;9873;52.236;21.002;2023-02-28T22:55:57;28.70;;;14.87;;
17261;SDS011;9873;52.236;21.002;2023-02-28T23:06:00;41.33;;;19.73;;
17261;SDS011;9873;52.236;21.002;2023-02-28T23:16:05;42.33;;;20.57;;
17261;SDS011;9873;52.236;21.002;2023-02-28T23:26:10;38.00;;;17.87;;
17261;SDS011;9873;52.236;21.002;2023-02-28T23:36:18;40.03;;;18.30;;
17261;SDS011;9873;52.236;21.002;2023-02-28T23:46:23;45.30;;;25.70;;
17261;SDS011;9873;52.236;21.002;2023-02-28T23:56:30;44.77;;;20.23;;
